Time;durP1;ratioP1;P1;durP2;ratioP2;P2;SDS_P1;SDS_P2;PMS_P1;PMS_P2;Temp;Humidity;BMP_temperature;BMP_pressure;BME280_temperature;BME280_humidity;BME280_pressure;Samples;Min_cycle;Max_cycle;Signal;HPM_P1;HPM_P2
2022/11/04 00:01:40;;;;;;;1.90;1.20;;;15.70;49.90;;;;;;5017101;28;20415;-78
2022/11/04 00:04:06;;;;;;;2.27;1.30;;;15.60;51.00;;;;;;5016558;28;20408;-78
2022/11/04 00:06:32;;;;;;;1.90;1.20;;;15.60;51.50;;;;;;4999340;28;20479;-79
2022/11/04 00:08:58;;;;;;;1.90;1.20;;;15.60;50.80;;;;;;4976779;28;20190;-79
2022/11/04 00:14:11;;;;;;;1.90;1.20;;;15.70;48.70;;;;;;4999479;28;20985;-79
2022/11/04 00:19:21;;;;;;;1.80;1.20;;;15.50;51.20;;;;;;5000133;28;20404;-79
2022/11/04 00:30:05;;;;;;;1.90;1.10;;;15.20;51.50;;;;;;5015456;28;20794;-79
2022/11/04 00:35:15;;;;;;;1.80;1.10;;;15.30;51.40;;;;;;5008827;28;21083;-78
2022/11/04 00:37:43;;;;;;;1.80;1.13;;;15.40;51.00;;;;;;4981202;28;20480;-78
2022/11/04 00:40:11;;;;;;;1.87;1.10;;;15.50;50.20;;;;;;5001335;28;20178;-79
2022/11/04 00:42:37;;;;;;;1.90;1.20;;;15.50;47.80;;;;;;5012320;28;20439;-77
2022/11/04 00:45:04;;;;;;;2.30;1.50;;;15.10;48.60;;;;;;4979764;28;20438;-78
2022/11/04 00:47:29;;;;;;;1.80;1.10;;;15.00;52.10;;;;;;4980518;28;20470;-78
2022/11/04 00:49:55;;;;;;;1.90;1.20;;;15.40;48.60;;;;;;4998414;28;20421;-80
2022/11/04 00:52:21;;;;;;;1.83;1.10;;;15.40;50.00;;;;;;5000301;28;20591;-79
2022/11/04 00:54:46;;;;;;;1.97;1.20;;;15.30;48.00;;;;;;4998409;28;20250;-77
2022/11/04 00:57:12;;;;;;;1.90;1.20;;;14.90;48.50;;;;;;4997571;28;20464;-79
2022/11/04 00:59:39;;;;;;;1.80;1.10;;;15.30;48.60;;;;;;4998791;28;20191;-79
2022/11/04 01:02:06;;;;;;;1.90;1.10;;;15.20;49.60;;;;;;4982222;28;20417;-79
2022/11/04 01:04:32;;;;;;;1.87;1.10;;;14.80;48.20;;;;;;5007609;28;20444;-77
2022/11/04 01:06:57;;;;;;;1.87;1.13;;;15.10;47.50;;;;;;5015532;28;20449;-78
2022/11/04 01:09:23;;;;;;;1.90;1.20;;;15.20;47.40;;;;;;4998881;28;20210;-75
2022/11/04 01:11:48;;;;;;;1.80;1.10;;;15.30;47.70;;;;;;5015422;28;20324;-76
2022/11/04 01:14:15;;;;;;;1.90;1.17;;;15.40;45.80;;;;;;5016568;28;20192;-77
2022/11/04 01:16:40;;;;;;;1.87;1.17;;;15.20;45.50;;;;;;4993314;28;20215;-79
2022/11/04 01:19:06;;;;;;;1.87;1.10;;;15.10;46.20;;;;;;4997977;28;20467;-78
2022/11/04 01:21:32;;;;;;;1.80;1.13;;;15.20;44.80;;;;;;4998332;28;20175;-78
2022/11/04 01:23:59;;;;;;;1.83;1.20;;;15.20;45.10;;;;;;4979784;28;20455;-78
2022/11/04 01:26:26;;;;;;;1.80;1.10;;;15.10;45.60;;;;;;4993773;28;20682;-78
2022/11/04 01:28:53;;;;;;;1.77;1.10;;;15.30;44.00;;;;;;5006545;28;20432;-78
2022/11/04 01:31:25;;;;;;;1.80;1.10;;;14.70;46.40;;;;;;4980946;28;20809;-78
2022/11/04 01:33:52;;;;;;;1.80;1.13;;;14.60;47.20;;;;;;4979450;28;21019;-78
2022/11/04 01:36:19;;;;;;;1.80;1.17;;;14.50;49.50;;;;;;4979036;28;20552;-78
2022/11/04 01:38:45;;;;;;;1.70;1.10;;;14.30;49.80;;;;;;4995994;28;20442;-78
2022/11/04 01:41:16;;;;;;;2.00;1.30;;;14.20;50.40;;;;;;4997630;28;20426;-77
2022/11/04 01:43:52;;;;;;;1.83;1.20;;;14.00;51.10;;;;;;4997293;28;20171;-77
2022/11/04 01:46:27;;;;;;;1.70;1.00;;;14.10;51.20;;;;;;4979409;28;20573;-78
2022/11/04 01:48:57;;;;;;;1.90;1.20;;;14.40;51.30;;;;;;4997547;28;20465;-77
2022/11/04 01:51:23;;;;;;;1.80;1.10;;;14.20;48.40;;;;;;5012214;28;20430;-76
2022/11/04 01:53:51;;;;;;;1.90;1.20;;;13.30;54.00;;;;;;5012512;28;20423;-76
2022/11/04 01:56:19;;;;;;;1.87;1.13;;;13.00;55.70;;;;;;5009322;28;20215;-78
2022/11/04 01:58:51;;;;;;;1.90;1.20;;;13.00;56.30;;;;;;4993431;28;20439;-78
2022/11/04 02:01:17;;;;;;;1.70;1.10;;;12.90;56.80;;;;;;4994447;28;20969;-79
2022/11/04 02:06:49;;;;;;;1.90;1.17;;;12.80;56.20;;;;;;4995191;28;20480;-77
2022/11/04 02:09:17;;;;;;;1.80;1.00;;;13.10;56.60;;;;;;4994084;28;20437;-78
2022/11/04 02:14:27;;;;;;;1.90;1.20;;;13.80;52.00;;;;;;4995840;28;20448;-78
2022/11/04 02:16:59;;;;;;;1.80;1.10;;;14.30;49.60;;;;;;4994652;28;20846;-77
2022/11/04 02:20:19;;;;;;;1.87;1.10;;;14.00;49.40;;;;;;4975871;28;20445;-79
2022/11/04 02:23:06;;;;;;;1.90;1.20;;;14.30;49.90;;;;;;4938251;29;20450;-78
2022/11/04 02:26:17;;;;;;;2.00;1.20;;;14.40;48.20;;;;;;4988785;28;20484;-77
2022/11/04 02:28:48;;;;;;;1.90;1.10;;;14.30;49.30;;;;;;4974997;28;20461;-78
2022/11/04 02:31:38;;;;;;;1.90;1.10;;;14.20;51.60;;;;;;4991780;28;20504;-78
2022/11/04 02:34:13;;;;;;;1.80;1.03;;;14.30;51.30;;;;;;4994019;28;20913;-77
2022/11/04 02:36:49;;;;;;;2.20;1.20;;;14.70;49.80;;;;;;4994862;28;20465;-78
2022/11/04 02:39:26;;;;;;;2.00;1.20;;;14.60;49.30;;;;;;4995736;28;20785;-77
2022/11/04 02:42:02;;;;;;;2.00;1.10;;;14.60;50.00;;;;;;4990929;28;20495;-77
2022/11/04 02:44:34;;;;;;;1.90;1.10;;;14.40;50.00;;;;;;4992532;28;20436;-77
2022/11/04 02:47:06;;;;;;;1.90;1.10;;;14.40;51.20;;;;;;4991474;28;20437;-78
2022/11/04 02:49:39;;;;;;;1.90;1.10;;;14.60;49.40;;;;;;4974441;28;20852;-78
2022/11/04 02:52:08;;;;;;;2.00;1.20;;;14.50;49.80;;;;;;4982737;28;20488;-77
2022/11/04 02:54:56;;;;;;;9.43;2.23;;;14.50;47.80;;;;;;4998546;28;20436;-77
2022/11/04 02:57:27;;;;;;;1.90;1.20;;;14.30;49.70;;;;;;5008144;28;20456;-79
2022/11/04 03:00:07;;;;;;;2.00;1.20;;;14.50;48.20;;;;;;5009992;28;20413;-77
2022/11/04 03:02:46;;;;;;;2.00;1.17;;;14.60;48.90;;;;;;5000119;28;20436;-77
2022/11/04 03:05:16;;;;;;;1.90;1.10;;;14.80;48.90;;;;;;5005899;28;20420;-78
2022/11/04 03:07:44;;;;;;;1.97;1.10;;;14.80;48.30;;;;;;4985443;28;20465;-78
2022/11/04 03:10:23;;;;;;;2.00;1.20;;;14.60;48.90;;;;;;4994252;28;20429;-77
2022/11/04 03:13:05;;;;;;;2.00;1.20;;;14.60;48.50;;;;;;4986897;28;20438;-77
2022/11/04 03:15:34;;;;;;;1.80;1.00;;;14.80;47.30;;;;;;4990702;28;20479;-77
2022/11/04 03:18:14;;;;;;;1.83;1.05;;;14.90;47.20;;;;;;5013426;28;20427;-77
2022/11/04 03:20:41;;;;;;;1.90;1.10;;;14.70;48.00;;;;;;4995882;28;20259;-77
2022/11/04 03:23:09;;;;;;;1.90;1.10;;;14.80;48.20;;;;;;5006337;28;20440;-78
2022/11/04 03:25:40;;;;;;;1.90;1.20;;;14.70;48.80;;;;;;4987307;28;20939;-77
2022/11/04 03:28:15;;;;;;;2.00;1.20;;;14.60;48.30;;;;;;4992806;28;20525;-77
2022/11/04 03:30:47;;;;;;;2.20;1.30;;;14.60;46.40;;;;;;4994056;28;20435;-78
2022/11/04 03:33:29;;;;;;;2.00;1.17;;;14.60;48.50;;;;;;4993145;28;20441;-78
2022/11/04 03:35:55;;;;;;;1.90;1.10;;;14.50;49.80;;;;;;4976726;28;20468;-79
2022/11/04 03:38:22;;;;;;;2.00;1.10;;;14.40;46.80;;;;;;4995212;28;20496;-78
2022/11/04 03:40:48;;;;;;;2.00;1.13;;;14.50;48.70;;;;;;4997934;28;20178;-77
2022/11/04 03:43:20;;;;;;;2.00;1.20;;;14.60;48.70;;;;;;4998260;28;20413;-77
2022/11/04 03:45:45;;;;;;;1.97;1.10;;;14.60;48.30;;;;;;4998438;28;21016;-78
2022/11/04 03:48:11;;;;;;;2.30;1.40;;;14.60;48.00;;;;;;4980162;28;20447;-78
2022/11/04 03:50:48;;;;;;;2.00;1.10;;;14.50;48.80;;;;;;5005818;28;20184;-78
2022/11/04 03:53:22;;;;;;;2.00;1.10;;;14.50;47.30;;;;;;4997439;28;20401;-78
2022/11/04 03:56:06;;;;;;;2.10;1.20;;;14.50;48.30;;;;;;4993246;28;20480;-77
2022/11/04 03:58:57;;;;;;;2.40;1.43;;;14.40;48.40;;;;;;4978625;28;20492;-77
2022/11/04 04:02:00;;;;;;;2.00;1.10;;;14.40;48.30;;;;;;4997578;28;20437;-78
2022/11/04 04:04:39;;;;;;;2.00;1.20;;;14.40;47.80;;;;;;4997354;28;20423;-78
2022/11/04 04:07:25;;;;;;;2.00;1.10;;;14.30;48.10;;;;;;4995693;28;20495;-78
2022/11/04 04:09:58;;;;;;;2.00;1.10;;;14.30;48.30;;;;;;5001423;28;20436;-79
2022/11/04 04:12:33;;;;;;;2.10;1.20;;;14.30;48.50;;;;;;4999233;28;20473;-78
2022/11/04 04:15:09;;;;;;;2.00;1.10;;;14.30;49.30;;;;;;4997597;28;20459;-78
2022/11/04 04:17:45;;;;;;;2.10;1.20;;;14.20;48.30;;;;;;4997883;28;20453;-77
2022/11/04 04:20:17;;;;;;;2.07;1.20;;;14.60;48.70;;;;;;4987814;28;20951;-77
2022/11/04 04:22:47;;;;;;;2.00;1.10;;;14.30;48.00;;;;;;4997175;28;20441;-77
2022/11/04 04:28:01;;;;;;;2.00;1.10;;;14.20;48.90;;;;;;4993103;28;20515;-77
2022/11/04 04:30:27;;;;;;;2.00;1.10;;;14.20;49.80;;;;;;4997185;28;20445;-78
2022/11/04 04:32:55;;;;;;;2.10;1.20;;;14.10;49.90;;;;;;4997224;28;20439;-78
2022/11/04 04:35:47;;;;;;;2.00;1.10;;;14.10;49.30;;;;;;4996513;28;20488;-78
2022/11/04 04:47:19;;;;;;;2.40;1.50;;;14.10;48.70;;;;;;4998761;28;20512;-78
2022/11/04 04:49:56;;;;;;;2.00;1.10;;;14.10;48.70;;;;;;4989544;28;20417;-77
2022/11/04 04:52:24;;;;;;;2.00;1.10;;;14.00;49.00;;;;;;4995596;28;20451;-76
2022/11/04 04:54:50;;;;;;;2.00;1.00;;;13.90;49.10;;;;;;4993958;28;20448;-77
2022/11/04 04:57:15;;;;;;;2.00;1.10;;;14.00;48.40;;;;;;4992690;28;20485;-78
2022/11/04 04:59:41;;;;;;;2.00;1.20;;;14.10;48.80;;;;;;4994677;28;20805;-78
2022/11/04 05:02:07;;;;;;;2.10;1.20;;;14.10;47.10;;;;;;4995682;28;20185;-78
2022/11/04 05:04:32;;;;;;;2.00;1.10;;;14.10;48.10;;;;;;4995613;28;20201;-76
2022/11/04 05:06:58;;;;;;;2.00;1.10;;;14.00;48.40;;;;;;4992424;28;20764;-78
2022/11/04 05:09:23;;;;;;;2.10;1.10;;;14.10;47.70;;;;;;4991152;28;20253;-78
2022/11/04 05:11:49;;;;;;;2.00;1.10;;;14.20;47.10;;;;;;4995193;28;20194;-78
2022/11/04 05:14:15;;;;;;;2.10;1.20;;;14.10;48.40;;;;;;5015852;28;20708;-76
2022/11/04 05:16:40;;;;;;;2.10;1.20;;;13.90;48.00;;;;;;5015988;28;20696;-77
2022/11/04 05:19:06;;;;;;;2.00;1.10;;;13.90;47.80;;;;;;5007843;28;20205;-77
2022/11/04 05:21:31;;;;;;;2.00;1.10;;;14.00;48.80;;;;;;4990704;28;20186;-77
2022/11/04 05:23:57;;;;;;;2.00;1.10;;;13.80;48.40;;;;;;4998081;28;20307;-77
2022/11/04 05:26:22;;;;;;;2.57;1.50;;;13.90;48.40;;;;;;4986152;28;20213;-77
2022/11/04 05:28:48;;;;;;;2.10;1.10;;;14.00;47.60;;;;;;4986293;28;20210;-77
2022/11/04 05:31:14;;;;;;;2.00;1.10;;;14.10;47.00;;;;;;4992470;28;20194;-78
2022/11/04 05:33:39;;;;;;;2.10;1.23;;;13.90;47.60;;;;;;4976557;28;20182;-78
2022/11/04 05:36:11;;;;;;;2.10;1.10;;;13.80;48.00;;;;;;4994970;28;20210;-76
2022/11/04 05:38:36;;;;;;;2.07;1.10;;;13.80;48.30;;;;;;4999971;28;20658;-78
2022/11/04 05:41:03;;;;;;;2.07;1.10;;;13.90;48.10;;;;;;4999626;28;20659;-79
2022/11/04 05:43:29;;;;;;;2.20;1.23;;;13.80;48.40;;;;;;5000641;28;20956;-78
2022/11/04 05:45:57;;;;;;;2.10;1.20;;;13.80;48.00;;;;;;4997410;28;20448;-77
2022/11/04 05:48:22;;;;;;;2.13;1.20;;;13.80;47.20;;;;;;4999010;28;20193;-77
2022/11/04 05:50:48;;;;;;;2.07;1.10;;;13.90;47.30;;;;;;4979744;28;20808;-78
2022/11/04 05:53:15;;;;;;;2.50;1.43;;;13.90;47.50;;;;;;4997028;28;20198;-77
2022/11/04 05:55:40;;;;;;;2.10;1.10;;;13.80;48.30;;;;;;4998126;28;20519;-78
2022/11/04 05:58:06;;;;;;;2.20;1.20;;;13.70;48.30;;;;;;4998169;28;20178;-78
2022/11/04 06:00:31;;;;;;;2.10;1.00;;;13.70;48.00;;;;;;4997300;28;20226;-79
2022/11/04 06:02:57;;;;;;;2.20;1.20;;;13.90;48.80;;;;;;4993801;28;20197;-78
2022/11/04 06:05:23;;;;;;;2.10;1.17;;;13.70;48.10;;;;;;4993245;28;20225;-79
2022/11/04 06:07:49;;;;;;;2.40;1.40;;;13.50;49.00;;;;;;4994479;28;20674;-78
2022/11/04 06:10:15;;;;;;;2.30;1.30;;;13.70;48.00;;;;;;4976184;28;20519;-79
2022/11/04 06:12:40;;;;;;;2.10;1.10;;;13.60;47.00;;;;;;4993467;28;20201;-79
2022/11/04 06:15:07;;;;;;;2.20;1.20;;;13.80;46.80;;;;;;4984006;28;20665;-78
2022/11/04 06:17:33;;;;;;;2.20;1.20;;;13.70;47.10;;;;;;5008243;28;20206;-78
2022/11/04 06:19:58;;;;;;;2.20;1.10;;;13.50;47.80;;;;;;4998089;28;20755;-78
2022/11/04 06:22:24;;;;;;;2.10;1.10;;;13.50;48.30;;;;;;4998004;28;20224;-78
2022/11/04 06:24:49;;;;;;;2.20;1.17;;;13.40;49.30;;;;;;4997757;28;20248;-79
2022/11/04 06:27:15;;;;;;;2.50;1.30;;;13.40;48.90;;;;;;4995269;28;20202;-79
2022/11/04 06:29:41;;;;;;;2.13;1.10;;;13.40;48.60;;;;;;4998057;28;20180;-79
2022/11/04 06:32:07;;;;;;;2.13;1.03;;;13.40;48.20;;;;;;4995560;28;20217;-79
2022/11/04 06:34:33;;;;;;;2.10;1.10;;;13.30;48.40;;;;;;5006034;28;20216;-78
2022/11/04 06:36:58;;;;;;;2.10;1.10;;;13.30;48.40;;;;;;4997233;28;20960;-77
2022/11/04 06:39:24;;;;;;;2.10;1.00;;;13.30;48.00;;;;;;4992399;28;20182;-76
2022/11/04 06:41:49;;;;;;;2.10;1.10;;;13.40;48.50;;;;;;5009838;28;20250;-76
2022/11/04 06:44:15;;;;;;;2.30;1.23;;;13.50;48.90;;;;;;5009757;28;20202;-77
2022/11/04 06:46:42;;;;;;;2.10;1.00;;;13.40;48.90;;;;;;5017539;28;20189;-75
2022/11/04 06:49:13;;;;;;;2.20;1.20;;;13.60;48.70;;;;;;5009918;28;20201;-77
2022/11/04 06:51:39;;;;;;;2.20;1.20;;;13.40;47.60;;;;;;4992243;28;20445;-77
2022/11/04 06:54:04;;;;;;;2.20;1.10;;;13.30;47.90;;;;;;4995825;28;20531;-77
2022/11/04 06:56:30;;;;;;;2.20;1.10;;;13.40;48.30;;;;;;5003045;28;20213;-78
2022/11/04 06:58:56;;;;;;;2.20;1.10;;;13.70;48.40;;;;;;5020847;28;20235;-78
2022/11/04 07:01:25;;;;;;;2.10;1.00;;;13.40;47.80;;;;;;5020366;28;20173;-78
2022/11/04 07:03:52;;;;;;;2.20;1.20;;;13.70;47.90;;;;;;4999692;28;20437;-78
2022/11/04 07:06:18;;;;;;;2.20;1.20;;;13.50;47.50;;;;;;4976799;28;20464;-78
2022/11/04 07:08:45;;;;;;;2.43;1.30;;;13.80;47.20;;;;;;5009406;28;20409;-77
2022/11/04 07:11:11;;;;;;;2.10;1.10;;;13.70;47.10;;;;;;5007871;28;20524;-78
2022/11/04 07:13:36;;;;;;;2.13;1.13;;;13.90;46.30;;;;;;5009100;28;20456;-78
2022/11/04 07:16:08;;;;;;;2.13;1.20;;;14.00;45.20;;;;;;5010121;28;20527;-77
2022/11/04 07:18:34;;;;;;;2.10;1.10;;;14.00;46.30;;;;;;5010878;28;20177;-78
2022/11/04 07:21:00;;;;;;;2.10;1.10;;;14.10;44.80;;;;;;5010206;28;20448;-77
2022/11/04 07:23:26;;;;;;;2.20;1.20;;;14.10;45.40;;;;;;5011220;28;20444;-78
2022/11/04 07:25:55;;;;;;;2.20;1.10;;;14.10;45.50;;;;;;4998605;28;20425;-77
2022/11/04 07:28:20;;;;;;;2.20;1.10;;;14.10;45.80;;;;;;4995135;28;20956;-77
2022/11/04 07:30:46;;;;;;;2.00;1.00;;;14.00;46.50;;;;;;5002769;28;20422;-77
2022/11/04 07:33:12;;;;;;;2.10;1.20;;;14.00;46.90;;;;;;5016766;28;20292;-77
2022/11/04 07:35:37;;;;;;;2.13;1.20;;;14.00;46.70;;;;;;4998541;28;20228;-78
2022/11/04 07:38:03;;;;;;;2.13;1.13;;;14.00;47.30;;;;;;4997352;28;20263;-77
2022/11/04 07:40:33;;;;;;;2.20;1.20;;;14.30;47.30;;;;;;4995814;28;20245;-78
2022/11/04 07:42:59;;;;;;;2.10;1.00;;;14.00;46.90;;;;;;4996558;28;20409;-76
2022/11/04 07:45:25;;;;;;;2.10;1.10;;;14.30;47.30;;;;;;4992992;28;20444;-76
2022/11/04 07:47:51;;;;;;;2.10;1.20;;;14.00;46.40;;;;;;4995335;28;20496;-77
2022/11/04 07:50:17;;;;;;;2.10;1.10;;;14.20;46.80;;;;;;4995563;28;20480;-77
2022/11/04 07:52:42;;;;;;;4.40;1.30;;;14.30;46.50;;;;;;4995620;28;20209;-76
2022/11/04 07:55:09;;;;;;;2.10;1.10;;;14.30;46.50;;;;;;4995791;28;20209;-77
2022/11/04 07:57:35;;;;;;;2.00;1.07;;;14.40;45.70;;;;;;4995410;28;20206;-77
2022/11/04 08:00:01;;;;;;;2.13;1.10;;;14.50;45.90;;;;;;5003407;28;20436;-77
2022/11/04 08:02:27;;;;;;;2.10;1.10;;;14.50;45.20;;;;;;4979311;28;20409;-77
2022/11/04 08:04:52;;;;;;;2.10;1.10;;;14.50;44.90;;;;;;5007170;28;20420;-76
2022/11/04 08:07:19;;;;;;;2.00;1.00;;;14.60;45.50;;;;;;4993801;28;20285;-76
2022/11/04 08:09:44;;;;;;;2.07;1.10;;;14.60;45.40;;;;;;5001451;28;20589;-77
2022/11/04 08:12:10;;;;;;;2.00;1.10;;;14.60;46.20;;;;;;4982827;28;20441;-77
2022/11/04 08:14:36;;;;;;;2.00;1.20;;;14.70;45.40;;;;;;4995500;28;20178;-78
2022/11/04 08:17:01;;;;;;;2.00;1.20;;;14.70;45.60;;;;;;4995459;28;20211;-78
2022/11/04 08:19:27;;;;;;;1.90;1.00;;;14.70;44.10;;;;;;4996169;28;20206;-77
2022/11/04 08:21:52;;;;;;;2.00;1.10;;;15.10;44.30;;;;;;4995371;28;20253;-77
2022/11/04 08:24:18;;;;;;;2.00;1.10;;;15.20;45.10;;;;;;4992800;28;20254;-78
2022/11/04 08:26:45;;;;;;;1.90;1.10;;;15.00;43.90;;;;;;5008338;28;20214;-77
2022/11/04 08:29:10;;;;;;;2.30;1.20;;;15.10;43.60;;;;;;5013726;28;20441;-77
2022/11/04 08:31:36;;;;;;;2.00;1.20;;;15.20;43.70;;;;;;5000883;28;20856;-77
2022/11/04 08:34:02;;;;;;;2.00;1.23;;;15.10;41.50;;;;;;4990006;28;20688;-77
2022/11/04 08:36:35;;;;;;;2.57;1.53;;;14.90;43.40;;;;;;4992925;28;20717;-76
2022/11/04 08:39:03;;;;;;;1.80;1.10;;;14.90;43.80;;;;;;4995958;28;20190;-78
2022/11/04 08:41:31;;;;;;;1.90;1.10;;;14.90;43.40;;;;;;4975671;28;20408;-77
2022/11/04 08:43:59;;;;;;;2.17;1.40;;;14.40;42.60;;;;;;4975506;28;20822;-78
2022/11/04 08:46:26;;;;;;;2.30;1.40;;;14.70;43.80;;;;;;4975611;28;20528;-77
2022/11/04 08:48:52;;;;;;;1.90;1.10;;;14.60;43.10;;;;;;4990362;28;20440;-78
2022/11/04 08:51:24;;;;;;;1.90;1.20;;;14.80;44.20;;;;;;4992683;28;20485;-77
2022/11/04 08:53:50;;;;;;;1.90;1.20;;;14.60;43.10;;;;;;5002267;28;20626;-84
2022/11/04 08:56:28;;;;;;;1.97;1.23;;;14.50;41.80;;;;;;4997476;28;20526;-85
2022/11/04 08:58:55;;;;;;;2.00;1.20;;;14.40;42.60;;;;;;4997614;28;20497;-85
2022/11/04 09:01:21;;;;;;;1.80;1.20;;;14.30;44.00;;;;;;4958808;28;20420;-84
2022/11/04 09:03:49;;;;;;;1.90;1.20;;;14.40;42.30;;;;;;4997896;28;20458;-85
2022/11/04 09:06:22;;;;;;;1.80;1.10;;;14.40;42.20;;;;;;4979539;28;21000;-85
2022/11/04 09:08:48;;;;;;;1.90;1.20;;;14.40;43.50;;;;;;4971714;28;20443;-77
2022/11/04 09:11:15;;;;;;;1.80;1.10;;;14.50;43.50;;;;;;4991128;28;20435;-77
2022/11/04 09:13:41;;;;;;;1.87;1.20;;;14.70;44.90;;;;;;4988082;28;20503;-78
2022/11/04 09:16:09;;;;;;;1.83;1.20;;;15.00;43.60;;;;;;4989392;28;20488;-79
2022/11/04 09:18:35;;;;;;;2.00;1.30;;;15.10;43.00;;;;;;4991828;28;20414;-79
2022/11/04 09:21:03;;;;;;;1.80;1.10;;;15.10;43.40;;;;;;4973895;28;20405;-78
2022/11/04 09:23:29;;;;;;;1.83;1.20;;;15.30;42.70;;;;;;4983748;28;20183;-78
2022/11/04 09:25:57;;;;;;;1.90;1.20;;;15.40;41.80;;;;;;5001045;28;20435;-79
2022/11/04 09:28:23;;;;;;;1.90;1.23;;;15.30;41.80;;;;;;4990603;28;20440;-78
2022/11/04 09:30:49;;;;;;;1.80;1.10;;;15.30;41.70;;;;;;4991529;28;20439;-78
2022/11/04 09:33:15;;;;;;;1.90;1.20;;;15.50;42.00;;;;;;4993027;28;20447;-78
2022/11/04 09:35:41;;;;;;;1.80;1.10;;;15.30;40.80;;;;;;4991627;28;20463;-77
2022/11/04 09:38:06;;;;;;;2.10;1.40;;;15.60;39.30;;;;;;4992534;28;20200;-76
2022/11/04 09:40:35;;;;;;;2.00;1.23;;;15.30;40.30;;;;;;4991804;28;20725;-77
2022/11/04 09:43:19;;;;;;;3.17;1.60;;;15.30;41.90;;;;;;4992346;28;20250;-78
2022/11/04 09:45:44;;;;;;;1.97;1.30;;;15.60;39.30;;;;;;5012668;22;20538;-79
2022/11/04 09:48:35;;;;;;;1.87;1.20;;;15.70;39.10;;;;;;5011204;28;20518;-79
2022/11/04 09:51:05;;;;;;;1.80;1.10;;;15.80;40.70;;;;;;5004305;28;20192;-81
2022/11/04 09:53:46;;;;;;;1.90;1.20;;;15.90;39.80;;;;;;5006029;28;20420;-82
2022/11/04 09:56:17;;;;;;;2.47;1.40;;;16.10;38.00;;;;;;5011448;28;20472;-81
2022/11/04 09:58:43;;;;;;;2.00;1.40;;;16.30;36.70;;;;;;5013795;28;20416;-82
2022/11/04 10:01:17;;;;;;;1.90;1.20;;;16.30;37.40;;;;;;5010494;28;20420;-84
2022/11/04 10:03:52;;;;;;;2.57;1.60;;;16.20;35.80;;;;;;5005452;28;20466;-80
2022/11/04 10:06:29;;;;;;;2.00;1.30;;;16.10;36.70;;;;;;5010506;28;20450;-79
2022/11/04 10:09:16;;;;;;;1.97;1.20;;;15.70;37.60;;;;;;5012759;28;20435;-81
2022/11/04 10:11:45;;;;;;;1.70;1.10;;;15.80;38.50;;;;;;4998560;28;20814;-81
2022/11/04 10:14:34;;;;;;;1.80;1.20;;;15.80;38.20;;;;;;5005051;28;20441;-76
2022/11/04 10:17:26;;;;;;;1.70;1.10;;;15.90;38.60;;;;;;5015264;28;20550;-77
2022/11/04 10:20:18;;;;;;;1.80;1.20;;;15.60;38.00;;;;;;5012644;28;20748;-77
2022/11/04 10:22:57;;;;;;;1.97;1.30;;;15.70;37.20;;;;;;4989335;28;20420;-78
2022/11/04 10:25:29;;;;;;;1.83;1.20;;;16.00;37.20;;;;;;5012281;28;20413;-78
2022/11/04 10:27:55;;;;;;;1.80;1.20;;;16.10;37.30;;;;;;5011849;28;20795;-78
2022/11/04 10:30:24;;;;;;;1.83;1.30;;;15.80;36.30;;;;;;5011270;28;20433;-77
2022/11/04 10:33:10;;;;;;;1.80;1.20;;;16.30;35.50;;;;;;5012110;28;20424;-78
2022/11/04 10:36:06;;;;;;;1.70;1.10;;;16.30;35.60;;;;;;5011150;28;20455;-77
2022/11/04 10:39:01;;;;;;;1.70;1.10;;;16.80;32.80;;;;;;4949819;28;20450;-77
2022/11/04 10:41:32;;;;;;;1.90;1.20;;;16.70;35.20;;;;;;4945188;28;20439;-77
2022/11/04 10:44:18;;;;;;;1.80;1.20;;;16.20;34.90;;;;;;4948993;29;20491;-78
2022/11/04 10:46:43;;;;;;;1.73;1.20;;;16.60;35.00;;;;;;4951335;29;20481;-78
2022/11/04 10:49:39;;;;;;;1.90;1.37;;;16.80;34.20;;;;;;4951199;28;20914;-78
2022/11/04 10:52:07;;;;;;;2.20;1.40;;;16.80;34.50;;;;;;4949007;28;20183;-77
2022/11/04 10:54:42;;;;;;;1.80;1.20;;;16.80;34.40;;;;;;4954674;28;20438;-79
2022/11/04 10:57:09;;;;;;;1.70;1.20;;;16.60;35.30;;;;;;4941450;28;20466;-77
2022/11/04 10:59:50;;;;;;;1.80;1.20;;;16.70;33.40;;;;;;4950929;28;20425;-78
2022/11/04 11:02:16;;;;;;;1.97;1.33;;;16.90;33.30;;;;;;4950391;28;20486;-77
2022/11/04 11:04:44;;;;;;;1.77;1.20;;;17.20;32.30;;;;;;4951282;29;20454;-78
2022/11/04 11:07:11;;;;;;;1.70;1.20;;;17.40;31.60;;;;;;4950142;28;20274;-77
2022/11/04 11:09:40;;;;;;;1.80;1.20;;;17.30;32.20;;;;;;4950867;29;20423;-78
2022/11/04 11:12:11;;;;;;;1.70;1.20;;;17.40;32.70;;;;;;4951492;28;20454;-78
2022/11/04 11:14:37;;;;;;;1.70;1.10;;;17.30;32.50;;;;;;4970766;28;20426;-78
2022/11/04 11:17:15;;;;;;;1.70;1.10;;;17.40;29.60;;;;;;5009557;28;20551;-78
2022/11/04 11:20:20;;;;;;;8.10;2.07;;;17.50;28.80;;;;;;5011303;28;20173;-77
2022/11/04 11:22:48;;;;;;;2.43;1.50;;;16.50;30.80;;;;;;5002392;28;20439;-77
2022/11/04 11:25:48;;;;;;;1.70;1.17;;;15.80;31.70;;;;;;5009563;28;20435;-76
2022/11/04 11:28:22;;;;;;;1.80;1.13;;;15.90;31.40;;;;;;5007251;28;20930;-78
2022/11/04 11:30:48;;;;;;;2.03;1.30;;;16.30;30.00;;;;;;5008162;28;20526;-77
2022/11/04 11:33:29;;;;;;;1.70;1.07;;;16.10;31.60;;;;;;5010040;28;20464;-77
2022/11/04 11:36:10;;;;;;;1.70;1.10;;;16.60;30.10;;;;;;5004659;28;20205;-77
2022/11/04 11:38:37;;;;;;;1.70;1.20;;;17.00;29.70;;;;;;5007632;28;20920;-77
2022/11/04 11:41:05;;;;;;;1.70;1.20;;;17.10;29.40;;;;;;5008937;28;20486;-78
2022/11/04 11:43:33;;;;;;;1.80;1.30;;;17.20;31.60;;;;;;5009561;28;20958;-77
2022/11/04 11:46:00;;;;;;;1.80;1.20;;;16.50;30.00;;;;;;5010481;28;20477;-77
2022/11/04 11:48:31;;;;;;;2.53;1.33;;;16.60;30.40;;;;;;5007160;28;20440;-77
2022/11/04 11:50:58;;;;;;;1.70;1.20;;;16.60;30.20;;;;;;5011398;28;20520;-77
2022/11/04 11:53:28;;;;;;;7.87;2.33;;;16.10;31.50;;;;;;5015094;28;20463;-79
2022/11/04 11:56:09;;;;;;;1.70;1.10;;;16.10;31.50;;;;;;5008189;28;20867;-77
2022/11/04 11:58:45;;;;;;;1.73;1.13;;;16.30;31.80;;;;;;5008644;28;20427;-77
2022/11/04 12:01:49;;;;;;;2.37;1.40;;;17.10;30.30;;;;;;5012385;28;20431;-78
2022/11/04 12:04:16;;;;;;;2.87;1.57;;;16.00;30.50;;;;;;4950019;28;20479;-75
2022/11/04 12:06:53;;;;;;;7.83;2.47;;;15.80;32.10;;;;;;5004320;28;20839;-77
2022/11/04 12:09:33;;;;;;;1.80;1.20;;;15.60;32.50;;;;;;5014960;28;20447;-78
2022/11/04 12:12:18;;;;;;;1.70;1.10;;;16.50;31.30;;;;;;5018983;28;20504;-77
2022/11/04 12:15:17;;;;;;;1.80;1.30;;;16.90;32.80;;;;;;5010705;28;20435;-77
2022/11/04 12:18:01;;;;;;;4.83;1.53;;;17.30;31.50;;;;;;5007414;28;20439;-78
2022/11/04 12:20:38;;;;;;;1.70;1.13;;;17.00;29.00;;;;;;5013626;28;20446;-77
2022/11/04 12:23:40;;;;;;;1.80;1.20;;;15.90;31.30;;;;;;5016046;28;20420;-77
2022/11/04 12:26:20;;;;;;;2.17;1.40;;;15.50;32.00;;;;;;5012428;28;20453;-78
2022/11/04 12:28:57;;;;;;;1.90;1.30;;;15.10;33.40;;;;;;5014615;28;20931;-77
2022/11/04 12:31:41;;;;;;;10.03;2.50;;;15.60;31.50;;;;;;5015148;28;20405;-78
2022/11/04 12:34:23;;;;;;;1.80;1.20;;;15.70;31.70;;;;;;5014201;28;20781;-79
2022/11/04 12:37:08;;;;;;;2.03;1.30;;;15.70;32.30;;;;;;5010852;28;21021;-77
2022/11/04 12:40:17;;;;;;;1.87;1.30;;;15.70;32.10;;;;;;5013032;28;20478;-78
2022/11/04 12:42:45;;;;;;;1.77;1.10;;;15.90;31.40;;;;;;4999816;28;20451;-77
2022/11/04 12:45:23;;;;;;;1.80;1.20;;;16.10;32.10;;;;;;5031540;28;20910;-77
2022/11/04 12:47:49;;;;;;;1.80;1.20;;;16.40;30.60;;;;;;5033239;28;20449;-77
2022/11/04 12:50:27;;;;;;;1.83;1.20;;;16.90;30.40;;;;;;5013624;28;20440;-76
2022/11/04 12:53:33;;;;;;;1.90;1.20;;;16.70;30.20;;;;;;5012933;28;20183;-77
2022/11/04 12:56:06;;;;;;;1.90;1.30;;;17.50;29.40;;;;;;4963957;28;20493;-77
2022/11/04 12:58:35;;;;;;;1.80;1.10;;;17.30;29.80;;;;;;5018575;28;20470;-78
2022/11/04 13:01:24;;;;;;;2.30;1.60;;;17.30;30.00;;;;;;5033421;28;20446;-78
2022/11/04 13:04:13;;;;;;;1.90;1.10;;;18.20;28.00;;;;;;5022289;28;20421;-78
2022/11/04 13:06:39;;;;;;;2.03;1.20;;;17.80;26.90;;;;;;5026048;28;20550;-77
2022/11/04 13:09:11;;;;;;;5.60;1.40;;;18.30;27.60;;;;;;5011118;28;20852;-77
2022/11/04 13:12:04;;;;;;;2.03;1.30;;;17.80;27.60;;;;;;5008711;28;20669;-77
2022/11/04 13:14:37;;;;;;;2.00;1.40;;;17.30;28.00;;;;;;5006689;28;20443;-78
2022/11/04 13:17:08;;;;;;;2.00;1.30;;;17.20;29.00;;;;;;5008531;28;20469;-78
2022/11/04 13:19:44;;;;;;;2.30;1.47;;;16.80;30.00;;;;;;5010667;28;20425;-80
2022/11/04 13:22:19;;;;;;;1.97;1.20;;;16.60;29.50;;;;;;5013463;28;20428;-78
2022/11/04 13:24:51;;;;;;;2.00;1.23;;;16.70;30.00;;;;;;5009976;28;20434;-79
2022/11/04 13:27:38;;;;;;;2.43;1.50;;;16.00;30.80;;;;;;5012233;28;20942;-78
2022/11/04 13:30:21;;;;;;;1.90;1.17;;;15.90;31.10;;;;;;5013505;28;20497;-78
2022/11/04 13:32:56;;;;;;;1.87;1.10;;;15.90;29.80;;;;;;5012417;28;20428;-78
2022/11/04 13:35:40;;;;;;;1.80;1.10;;;15.60;31.40;;;;;;5012877;28;20465;-79
2022/11/04 13:38:12;;;;;;;2.00;1.20;;;16.80;31.10;;;;;;5020724;28;20756;-78
2022/11/04 13:40:53;;;;;;;2.03;1.20;;;17.00;29.20;;;;;;5024799;28;20427;-78
2022/11/04 13:43:37;;;;;;;2.00;1.20;;;17.30;28.10;;;;;;5032975;28;20422;-78
2022/11/04 13:46:15;;;;;;;2.27;1.27;;;16.90;28.70;;;;;;5032680;28;20819;-78